sensor_id;sensor_type;location;lat;lon;timestamp;pressure;altitude;pressure_sealevel;temperature;humidity
56604;BME280;42486;47.478;19.036;2022-07-30T00:00:38;99925.13;;;22.72;67.21
56604;BME280;42486;47.478;19.036;2022-07-30T00:03:40;99927.16;;;22.70;67.36
56604;BME280;42486;47.478;19.036;2022-07-30T00:07:03;99930.81;;;22.62;67.76
56604;BME280;42486;47.478;19.036;2022-07-30T00:10:06;99929.56;;;22.58;68.08
56604;BME280;42486;47.478;19.036;2022-07-30T00:13:12;99935.53;;;22.53;68.40
56604;BME280;42486;47.478;19.036;2022-07-30T00:16:18;99936.53;;;22.52;68.59
56604;BME280;42486;47.478;19.036;2022-07-30T00:19:20;99934.91;;;22.51;68.83
56604;BME280;42486;47.478;19.036;2022-07-30T00:22:25;99941.03;;;22.45;69.05
56604;BME280;42486;47.478;19.036;2022-07-30T00:25:32;99934.09;;;22.51;68.79
56604;BME280;42486;47.478;19.036;2022-07-30T00:28:37;99930.78;;;22.49;69.04
56604;BME280;42486;47.478;19.036;2022-07-30T00:31:39;99932.66;;;22.48;69.12
56604;BME280;42486;47.478;19.036;2022-07-30T00:34:43;99930.59;;;22.50;69.18
56604;BME280;42486;47.478;19.036;2022-07-30T00:37:45;99921.41;;;22.53;69.00
56604;BME280;42486;47.478;19.036;2022-07-30T00:40:48;99921.59;;;22.51;68.86
56604;BME280;42486;47.478;19.036;2022-07-30T00:43:50;99921.59;;;22.51;68.62
56604;BME280;42486;47.478;19.036;2022-07-30T00:46:52;99914.41;;;22.52;68.73
56604;BME280;42486;47.478;19.036;2022-07-30T00:49:59;99912.16;;;22.49;68.71
56604;BME280;42486;47.478;19.036;2022-07-30T00:53:10;99917.69;;;22.47;68.56
56604;BME280;42486;47.478;19.036;2022-07-30T00:56:12;99915.41;;;22.44;68.60
56604;BME280;42486;47.478;19.036;2022-07-30T00:59:14;99924.63;;;22.41;68.85
56604;BME280;42486;47.478;19.036;2022-07-30T01:02:16;99924.63;;;22.41;68.77
56604;BME280;42486;47.478;19.036;2022-07-30T01:05:19;99927.09;;;22.43;68.49
56604;BME280;42486;47.478;19.036;2022-07-30T01:08:21;99927.50;;;22.47;68.25
56604;BME280;42486;47.478;19.036;2022-07-30T01:11:27;99928.94;;;22.49;68.08
56604;BME280;42486;47.478;19.036;2022-07-30T01:14:36;99921.59;;;22.58;67.73
56604;BME280;42486;47.478;19.036;2022-07-30T01:17:45;99922.63;;;22.57;67.85
56604;BME280;42486;47.478;19.036;2022-07-30T01:21:01;99919.34;;;22.55;67.81
56604;BME280;42486;47.478;19.036;2022-07-30T01:24:11;99917.06;;;22.52;67.97
56604;BME280;42486;47.478;19.036;2022-07-30T01:27:19;99917.69;;;22.54;67.77
56604;BME280;42486;47.478;19.036;2022-07-30T01:30:24;99923.03;;;22.60;67.61
56604;BME280;42486;47.478;19.036;2022-07-30T01:33:30;99922.22;;;22.60;67.52
56604;BME280;42486;47.478;19.036;2022-07-30T01:36:35;99926.94;;;22.64;67.46
56604;BME280;42486;47.478;19.036;2022-07-30T01:39:42;99926.53;;;22.61;67.24
56604;BME280;42486;47.478;19.036;2022-07-30T01:42:54;99928.12;;;22.49;67.39
56604;BME280;42486;47.478;19.036;2022-07-30T01:46:00;99926.09;;;22.51;67.42
56604;BME280;42486;47.478;19.036;2022-07-30T01:49:03;99924.66;;;22.48;67.28
56604;BME280;42486;47.478;19.036;2022-07-30T01:52:05;99915.81;;;22.41;67.59
56604;BME280;42486;47.478;19.036;2022-07-30T01:55:13;99913.38;;;22.39;67.71
56604;BME280;42486;47.478;19.036;2022-07-30T01:58:22;99911.09;;;22.30;68.28
56604;BME280;42486;47.478;19.036;2022-07-30T02:01:31;99902.69;;;22.33;68.21
56604;BME280;42486;47.478;19.036;2022-07-30T02:04:33;99899.19;;;22.19;68.89
56604;BME280;42486;47.478;19.036;2022-07-30T02:07:36;99898.16;;;22.20;69.01
56604;BME280;42486;47.478;19.036;2022-07-30T02:10:45;99899.34;;;22.11;69.56
56604;BME280;42486;47.478;19.036;2022-07-30T02:13:52;99895.81;;;22.04;70.14
56604;BME280;42486;47.478;19.036;2022-07-30T02:16:56;99890.53;;;22.10;70.12
56604;BME280;42486;47.478;19.036;2022-07-30T02:20:00;99880.25;;;22.07;70.26
56604;BME280;42486;47.478;19.036;2022-07-30T02:23:10;99881.06;;;22.01;70.58
56604;BME280;42486;47.478;19.036;2022-07-30T02:26:16;99880.38;;;21.86;71.45
56604;BME280;42486;47.478;19.036;2022-07-30T02:29:21;99872.03;;;21.89;71.58
56604;BME280;42486;47.478;19.036;2022-07-30T02:32:29;99866.50;;;21.84;71.75
56604;BME280;42486;47.478;19.036;2022-07-30T02:35:36;99857.47;;;21.85;71.84
56604;BME280;42486;47.478;19.036;2022-07-30T02:38:43;99862.63;;;21.86;71.82
56604;BME280;42486;47.478;19.036;2022-07-30T02:41:45;99861.78;;;21.86;71.92
56604;BME280;42486;47.478;19.036;2022-07-30T02:44:56;99855.84;;;21.84;72.11
56604;BME280;42486;47.478;19.036;2022-07-30T02:48:01;99856.44;;;21.79;72.37
56604;BME280;42486;47.478;19.036;2022-07-30T02:51:31;99856.22;;;21.74;72.67
56604;BME280;42486;47.478;19.036;2022-07-30T02:54:35;99860.72;;;21.80;72.68
56604;BME280;42486;47.478;19.036;2022-07-30T02:57:40;99856.63;;;21.71;73.08
56604;BME280;42486;47.478;19.036;2022-07-30T03:00:46;99860.31;;;21.76;73.03
56604;BME280;42486;47.478;19.036;2022-07-30T03:03:56;99864.59;;;21.71;73.34
56604;BME280;42486;47.478;19.036;2022-07-30T03:06:59;99866.22;;;21.72;73.61
56604;BME280;42486;47.478;19.036;2022-07-30T03:10:10;99858.47;;;21.70;73.72
56604;BME280;42486;47.478;19.036;2022-07-30T03:13:12;99865.00;;;21.68;73.99
56604;BME280;42486;47.478;19.036;2022-07-30T03:16:16;99846.16;;;21.63;74.26
56604;BME280;42486;47.478;19.036;2022-07-30T03:19:28;99853.31;;;21.62;74.37
56604;BME280;42486;47.478;19.036;2022-07-30T03:22:31;99860.44;;;21.62;74.49
56604;BME280;42486;47.478;19.036;2022-07-30T03:25:36;99858.41;;;21.64;74.19
56604;BME280;42486;47.478;19.036;2022-07-30T03:28:39;99858.81;;;21.67;73.92
56604;BME280;42486;47.478;19.036;2022-07-30T03:31:44;99866.63;;;21.69;73.91
56604;BME280;42486;47.478;19.036;2022-07-30T03:34:51;99856.78;;;21.69;73.70
56604;BME280;42486;47.478;19.036;2022-07-30T03:38:09;99865.47;;;21.85;73.22
56604;BME280;42486;47.478;19.036;2022-07-30T03:41:12;99864.41;;;21.79;73.67
56604;BME280;42486;47.478;19.036;2022-07-30T03:44:15;99858.06;;;21.73;73.43
56604;BME280;42486;47.478;19.036;2022-07-30T03:47:17;99859.84;;;21.60;73.74
56604;BME280;42486;47.478;19.036;2022-07-30T03:50:22;99860.25;;;21.63;73.14
56604;BME280;42486;47.478;19.036;2022-07-30T03:53:26;99859.00;;;21.59;73.29
56604;BME280;42486;47.478;19.036;2022-07-30T03:56:31;99860.81;;;21.52;73.87
56604;BME280;42486;47.478;19.036;2022-07-30T03:59:36;99857.13;;;21.53;73.92
56604;BME280;42486;47.478;19.036;2022-07-30T04:02:40;99860.81;;;21.52;74.03
56604;BME280;42486;47.478;19.036;2022-07-30T04:05:45;99863.25;;;21.47;74.55
56604;BME280;42486;47.478;19.036;2022-07-30T04:08:48;99859.91;;;21.38;75.19
56604;BME280;42486;47.478;19.036;2022-07-30T04:11:51;99857.69;;;21.42;75.24
56604;BME280;42486;47.478;19.036;2022-07-30T04:14:55;99861.97;;;21.43;75.51
56604;BME280;42486;47.478;19.036;2022-07-30T04:18:00;99866.97;;;21.59;74.64
56604;BME280;42486;47.478;19.036;2022-07-30T04:21:04;99861.47;;;21.61;74.68
56604;BME280;42486;47.478;19.036;2022-07-30T04:24:18;99862.06;;;21.56;74.72
56604;BME280;42486;47.478;19.036;2022-07-30T04:27:28;99858.63;;;21.62;74.57
56604;BME280;42486;47.478;19.036;2022-07-30T04:30:35;99864.91;;;21.54;75.01
56604;BME280;42486;47.478;19.036;2022-07-30T04:33:40;99868.41;;;21.62;74.82
56604;BME280;42486;47.478;19.036;2022-07-30T04:36:43;99878.16;;;21.48;75.53
56604;BME280;42486;47.478;19.036;2022-07-30T04:39:52;99879.37;;;21.45;75.88
56604;BME280;42486;47.478;19.036;2022-07-30T04:43:01;99879.66;;;21.57;75.55
56604;BME280;42486;47.478;19.036;2022-07-30T04:46:03;99881.28;;;21.58;75.67
56604;BME280;42486;47.478;19.036;2022-07-30T04:49:06;99873.25;;;21.45;76.75
56604;BME280;42486;47.478;19.036;2022-07-30T04:52:09;99873.91;;;21.53;76.76
56604;BME280;42486;47.478;19.036;2022-07-30T04:55:12;99878.06;;;21.63;76.23
56604;BME280;42486;47.478;19.036;2022-07-30T04:58:22;99883.84;;;21.80;75.56
56604;BME280;42486;47.478;19.036;2022-07-30T05:01:26;99877.31;;;21.82;75.59
56604;BME280;42486;47.478;19.036;2022-07-30T05:04:42;99873.34;;;21.65;76.34
56604;BME280;42486;47.478;19.036;2022-07-30T05:07:45;99878.28;;;21.68;76.23
56604;BME280;42486;47.478;19.036;2022-07-30T05:10:50;99893.28;;;21.82;75.94
56604;BME280;42486;47.478;19.036;2022-07-30T05:13:53;99886.56;;;21.86;75.79
56604;BME280;42486;47.478;19.036;2022-07-30T05:16:56;99889.47;;;22.05;75.13
56604;BME280;42486;47.478;19.036;2022-07-30T05:20:01;99884.44;;;22.23;74.29
56604;BME280;42486;47.478;19.036;2022-07-30T05:23:09;99884.59;;;22.08;74.72
56604;BME280;42486;47.478;19.036;2022-07-30T05:26:13;99889.88;;;22.02;74.85
56604;BME280;42486;47.478;19.036;2022-07-30T05:29:15;99888.53;;;22.19;74.53
56604;BME280;42486;47.478;19.036;2022-07-30T05:32:20;99883.22;;;22.19;74.70
56604;BME280;42486;47.478;19.036;2022-07-30T05:35:27;99886.91;;;22.25;74.17
56604;BME280;42486;47.478;19.036;2022-07-30T05:38:31;99886.72;;;22.26;74.40
56604;BME280;42486;47.478;19.036;2022-07-30T05:41:36;99887.59;;;22.60;72.79
56604;BME280;42486;47.478;19.036;2022-07-30T05:44:48;99890.91;;;22.69;72.44
56604;BME280;42486;47.478;19.036;2022-07-30T05:47:54;99892.56;;;22.96;71.14
56604;BME280;42486;47.478;19.036;2022-07-30T05:50:56;99899.28;;;22.79;71.86
56604;BME280;42486;47.478;19.036;2022-07-30T05:54:02;99893.97;;;22.85;71.78
56604;BME280;42486;47.478;19.036;2022-07-30T05:57:04;99912.59;;;22.79;72.42
56604;BME280;42486;47.478;19.036;2022-07-30T06:00:09;99907.91;;;22.94;71.68
56604;BME280;42486;47.478;19.036;2022-07-30T06:03:22;99909.94;;;22.72;72.48
56604;BME280;42486;47.478;19.036;2022-07-30T06:06:24;99903.81;;;22.72;72.14
56604;BME280;42486;47.478;19.036;2022-07-30T06:09:28;99895.19;;;22.56;72.68
56604;BME280;42486;47.478;19.036;2022-07-30T06:12:38;99896.41;;;22.74;72.22
56604;BME280;42486;47.478;19.036;2022-07-30T06:15:40;99909.94;;;22.65;72.30
56604;BME280;42486;47.478;19.036;2022-07-30T06:18:43;99906.69;;;22.90;71.17
56604;BME280;42486;47.478;19.036;2022-07-30T06:21:49;99906.31;;;23.06;70.65
56604;BME280;42486;47.478;19.036;2022-07-30T06:25:07;99910.22;;;23.04;70.29
56604;BME280;42486;47.478;19.036;2022-07-30T06:28:09;99905.06;;;23.16;70.08
56604;BME280;42486;47.478;19.036;2022-07-30T06:31:31;99913.66;;;23.38;69.22
56604;BME280;42486;47.478;19.036;2022-07-30T06:34:34;99918.38;;;23.36;69.80
56604;BME280;42486;47.478;19.036;2022-07-30T06:37:37;99910.13;;;23.64;68.33
56604;BME280;42486;47.478;19.036;2022-07-30T06:41:03;99910.53;;;23.67;67.88
56604;BME280;42486;47.478;19.036;2022-07-30T06:44:06;99919.28;;;23.94;67.33
56604;BME280;42486;47.478;19.036;2022-07-30T06:47:08;99929.78;;;24.34;65.96
56604;BME280;42486;47.478;19.036;2022-07-30T06:50:11;99921.94;;;24.46;65.48
56604;BME280;42486;47.478;19.036;2022-07-30T06:53:13;99918.06;;;24.35;66.14
56604;BME280;42486;47.478;19.036;2022-07-30T06:56:16;99914.56;;;24.73;64.73
56604;BME280;42486;47.478;19.036;2022-07-30T06:59:18;99924.63;;;24.78;64.47
56604;BME280;42486;47.478;19.036;2022-07-30T07:02:21;99913.00;;;24.91;63.76
56604;BME280;42486;47.478;19.036;2022-07-30T07:05:25;99918.44;;;24.84;64.15
56604;BME280;42486;47.478;19.036;2022-07-30T07:08:34;99920.06;;;24.53;64.85
56604;BME280;42486;47.478;19.036;2022-07-30T07:11:35;99919.00;;;24.54;65.49
56604;BME280;42486;47.478;19.036;2022-07-30T07:14:38;99916.84;;;24.76;63.62
56604;BME280;42486;47.478;19.036;2022-07-30T07:17:40;99912.25;;;24.83;63.73
56604;BME280;42486;47.478;19.036;2022-07-30T07:20:42;99901.19;;;24.48;65.04
56604;BME280;42486;47.478;19.036;2022-07-30T07:23:47;99901.09;;;24.61;64.86
56604;BME280;42486;47.478;19.036;2022-07-30T07:26:49;99899.81;;;24.96;63.04
56604;BME280;42486;47.478;19.036;2022-07-30T07:29:51;99896.03;;;24.78;62.97
56604;BME280;42486;47.478;19.036;2022-07-30T07:33:05;99892.44;;;24.66;63.90
56604;BME280;42486;47.478;19.036;2022-07-30T07:36:07;99889.22;;;24.82;62.76
56604;BME280;42486;47.478;19.036;2022-07-30T07:39:11;99899.31;;;24.80;63.40
56604;BME280;42486;47.478;19.036;2022-07-30T07:42:17;99891.63;;;24.91;62.89
56604;BME280;42486;47.478;19.036;2022-07-30T07:45:19;99886.94;;;25.11;62.65
56604;BME280;42486;47.478;19.036;2022-07-30T07:48:22;99886.03;;;25.61;60.80
56604;BME280;42486;47.478;19.036;2022-07-30T07:51:24;99889.69;;;25.85;59.17
56604;BME280;42486;47.478;19.036;2022-07-30T07:54:47;99899.16;;;26.78;55.60
56604;BME280;42486;47.478;19.036;2022-07-30T07:57:51;99923.59;;;26.70;55.68
56604;BME280;42486;47.478;19.036;2022-07-30T08:00:54;99937.94;;;25.60;59.12
56604;BME280;42486;47.478;19.036;2022-07-30T08:03:57;99947.28;;;25.00;60.59
56604;BME280;42486;47.478;19.036;2022-07-30T08:07:00;99947.56;;;24.60;62.76
56604;BME280;42486;47.478;19.036;2022-07-30T08:10:05;99946.38;;;24.50;63.46
56604;BME280;42486;47.478;19.036;2022-07-30T08:13:11;99946.50;;;24.23;64.40
56604;BME280;42486;47.478;19.036;2022-07-30T08:16:34;99934.53;;;23.81;66.09
56604;BME280;42486;47.478;19.036;2022-07-30T08:19:37;99914.19;;;23.86;66.99
56604;BME280;42486;47.478;19.036;2022-07-30T08:22:45;99916.63;;;23.88;70.83
56604;BME280;42486;47.478;19.036;2022-07-30T08:25:49;99925.56;;;23.28;73.54
56604;BME280;42486;47.478;19.036;2022-07-30T08:28:58;99938.88;;;22.82;78.55
56604;BME280;42486;47.478;19.036;2022-07-30T08:32:01;99949.34;;;22.97;80.30
56604;BME280;42486;47.478;19.036;2022-07-30T08:35:04;99953.63;;;22.98;77.75
56604;BME280;42486;47.478;19.036;2022-07-30T08:38:08;99944.84;;;23.17;77.50
56604;BME280;42486;47.478;19.036;2022-07-30T08:41:10;99954.03;;;23.48;69.50
56604;BME280;42486;47.478;19.036;2022-07-30T08:44:15;99962.63;;;23.90;67.68
56604;BME280;42486;47.478;19.036;2022-07-30T08:47:22;99953.72;;;24.09;67.71
56604;BME280;42486;47.478;19.036;2022-07-30T08:50:38;99953.47;;;24.24;62.99
56604;BME280;42486;47.478;19.036;2022-07-30T08:53:40;99962.78;;;24.53;62.07
56604;BME280;42486;47.478;19.036;2022-07-30T08:56:45;99947.63;;;24.47;63.63
56604;BME280;42486;47.478;19.036;2022-07-30T08:59:51;99941.22;;;24.55;62.72
56604;BME280;42486;47.478;19.036;2022-07-30T09:03:02;99932.69;;;24.71;61.46
56604;BME280;42486;47.478;19.036;2022-07-30T09:06:04;99952.56;;;24.82;61.91
56604;BME280;42486;47.478;19.036;2022-07-30T09:09:13;99954.44;;;24.75;62.42
56604;BME280;42486;47.478;19.036;2022-07-30T09:15:32;99954.50;;;24.16;64.06
56604;BME280;42486;47.478;19.036;2022-07-30T09:18:42;99950.47;;;24.07;65.65
56604;BME280;42486;47.478;19.036;2022-07-30T09:21:56;99950.50;;;23.87;65.61
56604;BME280;42486;47.478;19.036;2022-07-30T09:24:59;99943.31;;;23.88;67.40
56604;BME280;42486;47.478;19.036;2022-07-30T09:28:01;99946.63;;;23.77;63.10
56604;BME280;42486;47.478;19.036;2022-07-30T09:31:17;99942.31;;;23.69;65.52
56604;BME280;42486;47.478;19.036;2022-07-30T09:34:35;99942.97;;;23.51;68.97
56604;BME280;42486;47.478;19.036;2022-07-30T09:37:41;99948.28;;;23.51;71.10
56604;BME280;42486;47.478;19.036;2022-07-30T09:40:48;99946.91;;;23.15;73.84
56604;BME280;42486;47.478;19.036;2022-07-30T09:43:57;99941.78;;;23.07;74.53
56604;BME280;42486;47.478;19.036;2022-07-30T09:47:02;99950.38;;;23.02;75.03
56604;BME280;42486;47.478;19.036;2022-07-30T09:53:08;99972.66;;;22.95;73.22
56604;BME280;42486;47.478;19.036;2022-07-30T09:56:26;99982.53;;;22.87;74.08
56604;BME280;42486;47.478;19.036;2022-07-30T09:59:31;100001.31;;;22.66;75.39
56604;BME280;42486;47.478;19.036;2022-07-30T10:02:38;100009.87;;;21.29;88.12
56604;BME280;42486;47.478;19.036;2022-07-30T10:05:53;100005.12;;;20.00;100.00
56604;BME280;42486;47.478;19.036;2022-07-30T10:08:55;99969.00;;;19.32;100.00
56604;BME280;42486;47.478;19.036;2022-07-30T10:11:59;99954.53;;;19.20;100.00
56604;BME280;42486;47.478;19.036;2022-07-30T10:15:05;99932.22;;;19.14;100.00
56604;BME280;42486;47.478;19.036;2022-07-30T10:18:07;99943.53;;;19.08;100.00
56604;BME280;42486;47.478;19.036;2022-07-30T10:21:12;99942.00;;;19.13;100.00
56604;BME280;42486;47.478;19.036;2022-07-30T10:24:17;99956.41;;;19.11;100.00
56604;BME280;42486;47.478;19.036;2022-07-30T10:27:28;99961.84;;;19.18;100.00
56604;BME280;42486;47.478;19.036;2022-07-30T10:30:33;99962.00;;;19.16;100.00
56604;BME280;42486;47.478;19.036;2022-07-30T10:33:36;99965.53;;;19.08;100.00
56604;BME280;42486;47.478;19.036;2022-07-30T10:36:42;99976.94;;;19.32;100.00
56604;BME280;42486;47.478;19.036;2022-07-30T10:49:25;99992.31;;;19.36;100.00
56604;BME280;42486;47.478;19.036;2022-07-30T10:59:26;99967.09;;;19.41;100.00
56604;BME280;42486;47.478;19.036;2022-07-30T11:02:30;99953.97;;;19.47;100.00
56604;BME280;42486;47.478;19.036;2022-07-30T11:05:36;99951.94;;;19.49;100.00
56604;BME280;42486;47.478;19.036;2022-07-30T11:08:46;99933.78;;;19.61;100.00
56604;BME280;42486;47.478;19.036;2022-07-30T11:11:49;99935.44;;;19.77;100.00
56604;BME280;42486;47.478;19.036;2022-07-30T11:15:13;99927.41;;;19.85;100.00
56604;BME280;42486;47.478;19.036;2022-07-30T11:18:20;99927.75;;;19.97;100.00
56604;BME280;42486;47.478;19.036;2022-07-30T11:21:25;99912.41;;;20.29;100.00
56604;BME280;42486;47.478;19.036;2022-07-30T11:24:42;99902.03;;;20.49;100.00
56604;BME280;42486;47.478;19.036;2022-07-30T11:27:46;99897.03;;;20.39;100.00
56604;BME280;42486;47.478;19.036;2022-07-30T11:30:50;99886.66;;;20.44;100.00
56604;BME280;42486;47.478;19.036;2022-07-30T11:34:40;99887.59;;;20.36;100.00
56604;BME280;42486;47.478;19.036;2022-07-30T11:37:17;99892.38;;;20.26;100.00
56604;BME280;42486;47.478;19.036;2022-07-30T11:43:47;99906.53;;;20.48;100.00
56604;BME280;42486;47.478;19.036;2022-07-30T11:46:50;99902.22;;;20.47;100.00
56604;BME280;42486;47.478;19.036;2022-07-30T11:49:52;99896.94;;;20.68;100.00
56604;BME280;42486;47.478;19.036;2022-07-30T11:52:56;99894.72;;;20.94;100.00
56604;BME280;42486;47.478;19.036;2022-07-30T11:56:00;99887.25;;;21.04;100.00
56604;BME280;42486;47.478;19.036;2022-07-30T11:59:03;99880.72;;;21.06;100.00
56604;BME280;42486;47.478;19.036;2022-07-30T12:02:06;99883.09;;;21.51;100.00
56604;BME280;42486;47.478;19.036;2022-07-30T12:05:09;99881.59;;;21.83;100.00
56604;BME280;42486;47.478;19.036;2022-07-30T12:08:13;99873.94;;;21.60;100.00
56604;BME280;42486;47.478;19.036;2022-07-30T12:11:35;99865.06;;;21.81;100.00
56604;BME280;42486;47.478;19.036;2022-07-30T12:14:39;99861.50;;;22.15;100.00
56604;BME280;42486;47.478;19.036;2022-07-30T12:17:43;99848.37;;;22.14;100.00
56604;BME280;42486;47.478;19.036;2022-07-30T12:20:51;99841.50;;;22.39;100.00
56604;BME280;42486;47.478;19.036;2022-07-30T12:24:02;99837.00;;;22.40;100.00
56604;BME280;42486;47.478;19.036;2022-07-30T12:27:05;99832.91;;;22.37;95.66
56604;BME280;42486;47.478;19.036;2022-07-30T12:30:07;99829.66;;;22.82;96.34
56604;BME280;42486;47.478;19.036;2022-07-30T12:33:10;99849.09;;;23.22;95.08
56604;BME280;42486;47.478;19.036;2022-07-30T12:36:22;99846.63;;;22.94;94.07
56604;BME280;42486;47.478;19.036;2022-07-30T12:39:25;99855.47;;;23.08;93.95
56604;BME280;42486;47.478;19.036;2022-07-30T12:42:29;99850.09;;;22.95;92.17
56604;BME280;42486;47.478;19.036;2022-07-30T12:45:31;99841.59;;;23.78;90.67
56604;BME280;42486;47.478;19.036;2022-07-30T12:51:56;99840.97;;;23.76;84.20
56604;BME280;42486;47.478;19.036;2022-07-30T12:55:05;99841.37;;;23.66;83.81
56604;BME280;42486;47.478;19.036;2022-07-30T12:58:08;99839.72;;;23.78;83.36
56604;BME280;42486;47.478;19.036;2022-07-30T13:01:12;99849.47;;;23.46;83.65
56604;BME280;42486;47.478;19.036;2022-07-30T13:04:16;99850.69;;;23.43;82.64
56604;BME280;42486;47.478;19.036;2022-07-30T13:07:21;99853.81;;;23.20;83.51
56604;BME280;42486;47.478;19.036;2022-07-30T13:10:26;99854.88;;;23.06;83.31
56604;BME280;42486;47.478;19.036;2022-07-30T13:13:32;99858.25;;;23.53;80.34
56604;BME280;42486;47.478;19.036;2022-07-30T13:16:39;99868.06;;;23.66;77.19
56604;BME280;42486;47.478;19.036;2022-07-30T13:19:49;99862.94;;;23.58;78.11
56604;BME280;42486;47.478;19.036;2022-07-30T13:23:05;99866.31;;;23.20;78.23
56604;BME280;42486;47.478;19.036;2022-07-30T13:26:08;99864.28;;;23.22;78.57
56604;BME280;42486;47.478;19.036;2022-07-30T13:29:14;99855.25;;;23.10;78.53
56604;BME280;42486;47.478;19.036;2022-07-30T13:32:22;99834.13;;;22.95;79.99
56604;BME280;42486;47.478;19.036;2022-07-30T13:35:27;99822.66;;;22.81;80.72
56604;BME280;42486;47.478;19.036;2022-07-30T13:38:30;99834.34;;;22.86;81.78
56604;BME280;42486;47.478;19.036;2022-07-30T13:41:33;99829.03;;;22.80;82.27
56604;BME280;42486;47.478;19.036;2022-07-30T13:44:37;99829.00;;;22.73;82.29
56604;BME280;42486;47.478;19.036;2022-07-30T13:47:47;99837.19;;;22.52;82.94
56604;BME280;42486;47.478;19.036;2022-07-30T13:50:54;99830.25;;;22.71;84.16
56604;BME280;42486;47.478;19.036;2022-07-30T13:53:57;99828.38;;;22.58;82.65
56604;BME280;42486;47.478;19.036;2022-07-30T13:56:59;99833.09;;;22.89;81.34
56604;BME280;42486;47.478;19.036;2022-07-30T14:00:05;99835.16;;;22.94;78.88
56604;BME280;42486;47.478;19.036;2022-07-30T14:03:10;99845.00;;;22.93;78.04
56604;BME280;42486;47.478;19.036;2022-07-30T14:06:16;99848.09;;;23.10;79.08
56604;BME280;42486;47.478;19.036;2022-07-30T14:09:23;99854.22;;;22.77;79.21
56604;BME280;42486;47.478;19.036;2022-07-30T14:12:32;99860.97;;;22.60;81.78
56604;BME280;42486;47.478;19.036;2022-07-30T14:15:36;99860.94;;;22.33;83.04
56604;BME280;42486;47.478;19.036;2022-07-30T14:18:54;99868.88;;;22.20;84.55
56604;BME280;42486;47.478;19.036;2022-07-30T14:22:07;99873.75;;;22.16;84.75
56604;BME280;42486;47.478;19.036;2022-07-30T14:25:11;99872.31;;;22.14;83.07
56604;BME280;42486;47.478;19.036;2022-07-30T14:28:18;99868.84;;;22.13;81.67
56604;BME280;42486;47.478;19.036;2022-07-30T14:31:22;99871.28;;;22.08;83.59
56604;BME280;42486;47.478;19.036;2022-07-30T14:34:33;99872.50;;;22.12;83.36
56604;BME280;42486;47.478;19.036;2022-07-30T14:37:37;99877.34;;;22.37;80.37
56604;BME280;42486;47.478;19.036;2022-07-30T14:40:52;99868.91;;;22.33;77.90
56604;BME280;42486;47.478;19.036;2022-07-30T14:43:54;99874.28;;;22.60;75.45
56604;BME280;42486;47.478;19.036;2022-07-30T14:46:56;99871.16;;;22.36;76.56
56604;BME280;42486;47.478;19.036;2022-07-30T14:49:58;99877.34;;;22.43;78.05
56604;BME280;42486;47.478;19.036;2022-07-30T14:53:05;99870.72;;;22.19;75.32
56604;BME280;42486;47.478;19.036;2022-07-30T14:56:07;99863.72;;;22.12;76.53
56604;BME280;42486;47.478;19.036;2022-07-30T14:59:11;99864.59;;;22.26;75.48
56604;BME280;42486;47.478;19.036;2022-07-30T15:02:13;99862.31;;;22.16;77.20
56604;BME280;42486;47.478;19.036;2022-07-30T15:05:17;99858.16;;;22.07;76.82
56604;BME280;42486;47.478;19.036;2022-07-30T15:08:27;99864.00;;;22.30;77.35
56604;BME280;42486;47.478;19.036;2022-07-30T15:11:30;99872.37;;;22.34;76.56
56604;BME280;42486;47.478;19.036;2022-07-30T15:14:55;99862.81;;;22.59;75.83
56604;BME280;42486;47.478;19.036;2022-07-30T15:18:02;99862.41;;;22.89;73.98
56604;BME280;42486;47.478;19.036;2022-07-30T15:21:05;99863.44;;;22.88;72.63
56604;BME280;42486;47.478;19.036;2022-07-30T15:24:09;99871.22;;;22.90;71.91
56604;BME280;42486;47.478;19.036;2022-07-30T15:27:11;99871.84;;;22.85;74.57
56604;BME280;42486;47.478;19.036;2022-07-30T15:30:14;99867.56;;;23.17;73.56
56604;BME280;42486;47.478;19.036;2022-07-30T15:33:16;99873.06;;;23.36;69.07
56604;BME280;42486;47.478;19.036;2022-07-30T15:36:23;99873.19;;;23.61;68.65
56604;BME280;42486;47.478;19.036;2022-07-30T15:39:26;99869.09;;;23.58;69.16
56604;BME280;42486;47.478;19.036;2022-07-30T15:42:32;99872.41;;;23.47;70.27
56604;BME280;42486;47.478;19.036;2022-07-30T15:45:35;99878.00;;;23.19;70.48
56604;BME280;42486;47.478;19.036;2022-07-30T15:48:57;99884.16;;;23.19;70.81
56604;BME280;42486;47.478;19.036;2022-07-30T15:52:02;99888.28;;;23.22;70.74
56604;BME280;42486;47.478;19.036;2022-07-30T15:55:08;99891.12;;;23.07;71.32
56604;BME280;42486;47.478;19.036;2022-07-30T15:58:16;99895.19;;;22.63;73.05
56604;BME280;42486;47.478;19.036;2022-07-30T16:01:18;99899.69;;;22.56;73.53
56604;BME280;42486;47.478;19.036;2022-07-30T16:04:21;99900.44;;;22.36;74.05
56604;BME280;42486;47.478;19.036;2022-07-30T16:07:33;99905.34;;;22.26;74.99
56604;BME280;42486;47.478;19.036;2022-07-30T16:10:37;99907.41;;;22.24;74.71
56604;BME280;42486;47.478;19.036;2022-07-30T16:13:41;99904.78;;;22.37;75.31
56604;BME280;42486;47.478;19.036;2022-07-30T16:16:43;99914.44;;;22.58;75.64
56604;BME280;42486;47.478;19.036;2022-07-30T16:19:45;99910.56;;;22.81;72.58
56604;BME280;42486;47.478;19.036;2022-07-30T16:22:51;99913.28;;;23.14;72.32
56604;BME280;42486;47.478;19.036;2022-07-30T16:25:58;99906.09;;;23.28;68.97
56604;BME280;42486;47.478;19.036;2022-07-30T16:28:59;99904.63;;;23.52;68.82
56604;BME280;42486;47.478;19.036;2022-07-30T16:32:02;99910.63;;;23.14;69.48
56604;BME280;42486;47.478;19.036;2022-07-30T16:35:15;99911.84;;;23.25;69.25
56604;BME280;42486;47.478;19.036;2022-07-30T16:38:17;99922.50;;;23.38;69.28